SAS42C ENGM-ENHD
Flight info
| Callsign | SAS42C |
|---|---|
| Flight time | 0h 39m |
| Altitude | 28000 |
| Route | ATLAP DCT IPMOD DCT ULVOS |
| Aircraft | A20N/M-SDE2E3FGHIRWXY/LB1 |
Departure
| Time | 2026-05-05 18:48 |
|---|---|
| Airport | Oslo-Gardermoen International Airport (ENGM) |
Arrival
| Time | 2026-05-05 19:27 |
|---|---|
| Airport | Haugesund Airport, Karmøy (ENHD) |
| Time | Latitude | Longitude | Altitude | Speed | Heading |
|---|---|---|---|---|---|
| 2026-05-05 18:24 | 60.19593 | 11.09199 | 685 ft | 0 kts | 196° |
| 2026-05-05 18:39 | 60.19606 | 11.09207 | 685 ft | 4 kts | 196° |
| 2026-05-05 18:39 | 60.19632 | 11.09221 | 685 ft | 4 kts | 196° |
| 2026-05-05 18:39 | 60.19658 | 11.09236 | 684 ft | 4 kts | 196° |
| 2026-05-05 18:39 | 60.19680 | 11.09249 | 684 ft | 0 kts | 196° |
| 2026-05-05 18:42 | 60.19679 | 11.09248 | 684 ft | 1 kts | 195° |
| 2026-05-05 18:42 | 60.19678 | 11.09243 | 684 ft | 0 kts | 223° |
| 2026-05-05 18:42 | 60.19678 | 11.09237 | 684 ft | 0 kts | 254° |
| 2026-05-05 18:43 | 60.19681 | 11.09232 | 682 ft | 0 kts | 288° |
| 2026-05-05 18:43 | 60.19685 | 11.09226 | 682 ft | 3 kts | 312° |
| 2026-05-05 18:43 | 60.19711 | 11.09158 | 683 ft | 9 kts | 302° |
| 2026-05-05 18:43 | 60.19735 | 11.09003 | 682 ft | 14 kts | 286° |
| 2026-05-05 18:44 | 60.19772 | 11.08761 | 677 ft | 19 kts | 278° |
| 2026-05-05 18:44 | 60.19742 | 11.08669 | 678 ft | 7 kts | 204° |
| 2026-05-05 18:44 | 60.19679 | 11.08616 | 678 ft | 13 kts | 199° |
| 2026-05-05 18:44 | 60.19576 | 11.08554 | 678 ft | 18 kts | 196° |
| 2026-05-05 18:45 | 60.19433 | 11.08473 | 676 ft | 24 kts | 195° |
| 2026-05-05 18:45 | 60.19255 | 11.08370 | 674 ft | 29 kts | 196° |
| 2026-05-05 18:45 | 60.19048 | 11.08250 | 673 ft | 33 kts | 195° |
| 2026-05-05 18:45 | 60.18817 | 11.08117 | 671 ft | 36 kts | 196° |
| 2026-05-05 18:46 | 60.18614 | 11.08002 | 670 ft | 23 kts | 195° |
| 2026-05-05 18:46 | 60.18553 | 11.07787 | 665 ft | 20 kts | 281° |
| 2026-05-05 18:46 | 60.18563 | 11.07700 | 665 ft | 2 kts | 284° |
| 2026-05-05 18:46 | 60.18573 | 11.07628 | 664 ft | 8 kts | 284° |
| 2026-05-05 18:47 | 60.18602 | 11.07497 | 666 ft | 12 kts | 314° |
| 2026-05-05 18:47 | 60.18692 | 11.07482 | 666 ft | 17 kts | 14° |
| 2026-05-05 18:47 | 60.19078 | 11.07687 | 670 ft | 102 kts | 15° |
| 2026-05-05 18:47 | 60.19988 | 11.08215 | 686 ft | 166 kts | 15° |
| 2026-05-05 18:48 | 60.21153 | 11.08917 | 1298 ft | 180 kts | 14° |
| 2026-05-05 18:48 | 60.22412 | 11.09634 | 2095 ft | 194 kts | 12° |
| 2026-05-05 18:48 | 60.23752 | 11.10354 | 2903 ft | 202 kts | 11° |
| 2026-05-05 18:48 | 60.25144 | 11.11036 | 3663 ft | 214 kts | 7° |
| 2026-05-05 18:49 | 60.26686 | 11.11190 | 4431 ft | 229 kts | 352° |
| 2026-05-05 18:49 | 60.28280 | 11.10510 | 5432 ft | 243 kts | 335° |
| 2026-05-05 18:49 | 60.29634 | 11.08375 | 6504 ft | 253 kts | 305° |
| 2026-05-05 18:49 | 60.30295 | 11.05106 | 7910 ft | 256 kts | 281° |
| 2026-05-05 18:50 | 60.30495 | 11.01534 | 9329 ft | 262 kts | 275° |
| 2026-05-05 18:50 | 60.30659 | 10.97827 | 10604 ft | 273 kts | 276° |
| 2026-05-05 18:50 | 60.30934 | 10.93872 | 11411 ft | 296 kts | 279° |
| 2026-05-05 18:50 | 60.31346 | 10.89636 | 12223 ft | 316 kts | 282° |
| 2026-05-05 18:51 | 60.31585 | 10.85199 | 13445 ft | 322 kts | 268° |
| 2026-05-05 18:51 | 60.31071 | 10.80770 | 14619 ft | 328 kts | 248° |
| 2026-05-05 18:51 | 60.29785 | 10.76990 | 16029 ft | 330 kts | 229° |
| 2026-05-05 18:51 | 60.27917 | 10.74163 | 17182 ft | 341 kts | 218° |
| 2026-05-05 18:52 | 60.25883 | 10.71622 | 18287 ft | 346 kts | 218° |
| 2026-05-05 18:52 | 60.23825 | 10.69097 | 19307 ft | 347 kts | 218° |
| 2026-05-05 18:52 | 60.21759 | 10.66564 | 20381 ft | 347 kts | 220° |
| 2026-05-05 18:52 | 60.19735 | 10.63949 | 21450 ft | 342 kts | 226° |
| 2026-05-05 18:53 | 60.18082 | 10.60645 | 22491 ft | 330 kts | 240° |
| 2026-05-05 18:53 | 60.16930 | 10.56744 | 23560 ft | 321 kts | 252° |
| 2026-05-05 18:53 | 60.16287 | 10.52497 | 24396 ft | 317 kts | 262° |
| 2026-05-05 18:53 | 60.16115 | 10.48111 | 25066 ft | 321 kts | 269° |
| 2026-05-05 18:54 | 60.16041 | 10.43595 | 25758 ft | 326 kts | 268° |
| 2026-05-05 18:54 | 60.15958 | 10.39025 | 26435 ft | 330 kts | 268° |
| 2026-05-05 18:54 | 60.15867 | 10.34396 | 27116 ft | 334 kts | 268° |
| 2026-05-05 18:54 | 60.15768 | 10.29690 | 27686 ft | 339 kts | 268° |
| 2026-05-05 18:55 | 60.15665 | 10.24952 | 27869 ft | 340 kts | 268° |
| 2026-05-05 18:55 | 60.15561 | 10.20212 | 27891 ft | 340 kts | 268° |
| 2026-05-05 18:55 | 60.15454 | 10.15466 | 27889 ft | 340 kts | 268° |
| 2026-05-05 18:55 | 60.15345 | 10.10726 | 27891 ft | 340 kts | 268° |
| 2026-05-05 18:56 | 60.15236 | 10.05984 | 27890 ft | 340 kts | 268° |
| 2026-05-05 18:56 | 60.15123 | 10.01226 | 27897 ft | 340 kts | 268° |
| 2026-05-05 18:56 | 60.15009 | 9.96497 | 27892 ft | 340 kts | 268° |
| 2026-05-05 18:56 | 60.14894 | 9.91748 | 27891 ft | 340 kts | 268° |
| 2026-05-05 18:57 | 60.14755 | 9.87009 | 27906 ft | 340 kts | 265° |
| 2026-05-05 18:57 | 60.14379 | 9.82303 | 27898 ft | 342 kts | 260° |
| 2026-05-05 18:57 | 60.13741 | 9.77769 | 27898 ft | 344 kts | 255° |
| 2026-05-05 18:57 | 60.12824 | 9.73313 | 27897 ft | 347 kts | 249° |
| 2026-05-05 18:58 | 60.11793 | 9.68955 | 27899 ft | 344 kts | 254° |
| 2026-05-05 18:58 | 60.10984 | 9.64417 | 27823 ft | 345 kts | 255° |
| 2026-05-05 18:58 | 60.10172 | 9.59850 | 27907 ft | 351 kts | 254° |
| 2026-05-05 18:58 | 60.09360 | 9.55241 | 27902 ft | 349 kts | 254° |
| 2026-05-05 18:59 | 60.08558 | 9.50650 | 27905 ft | 349 kts | 255° |
| 2026-05-05 18:59 | 60.07759 | 9.46053 | 27908 ft | 349 kts | 255° |
| 2026-05-05 18:59 | 60.06960 | 9.41455 | 27908 ft | 349 kts | 255° |
| 2026-05-05 18:59 | 60.06159 | 9.36861 | 27909 ft | 349 kts | 255° |
| 2026-05-05 19:00 | 60.05359 | 9.32281 | 27908 ft | 349 kts | 255° |
| 2026-05-05 19:00 | 60.04552 | 9.27674 | 27917 ft | 351 kts | 254° |
| 2026-05-05 19:00 | 60.03743 | 9.23066 | 27920 ft | 351 kts | 254° |
| 2026-05-05 19:00 | 60.02933 | 9.18470 | 27919 ft | 350 kts | 254° |
| 2026-05-05 19:01 | 60.02120 | 9.13868 | 27917 ft | 351 kts | 254° |
| 2026-05-05 19:01 | 60.01313 | 9.09315 | 27917 ft | 351 kts | 254° |
| 2026-05-05 19:01 | 60.00496 | 9.04713 | 27915 ft | 351 kts | 254° |
| 2026-05-05 19:01 | 59.99678 | 9.00117 | 27927 ft | 351 kts | 254° |
| 2026-05-05 19:02 | 59.98859 | 8.95522 | 27930 ft | 351 kts | 254° |
| 2026-05-05 19:02 | 59.98038 | 8.90935 | 27936 ft | 351 kts | 254° |
| 2026-05-05 19:02 | 59.97215 | 8.86341 | 27938 ft | 351 kts | 254° |
| 2026-05-05 19:02 | 59.96392 | 8.81760 | 27934 ft | 351 kts | 254° |
| 2026-05-05 19:03 | 59.95565 | 8.77171 | 27931 ft | 351 kts | 254° |
| 2026-05-05 19:03 | 59.94738 | 8.72587 | 27950 ft | 351 kts | 254° |
| 2026-05-05 19:03 | 59.93907 | 8.67999 | 27952 ft | 351 kts | 254° |
| 2026-05-05 19:03 | 59.93088 | 8.63483 | 27951 ft | 351 kts | 254° |
| 2026-05-05 19:04 | 59.92254 | 8.58896 | 27940 ft | 352 kts | 253° |
| 2026-05-05 19:04 | 59.91413 | 8.54279 | 27948 ft | 355 kts | 253° |
| 2026-05-05 19:04 | 59.90571 | 8.49669 | 27947 ft | 354 kts | 253° |
| 2026-05-05 19:04 | 59.89738 | 8.45128 | 27913 ft | 354 kts | 253° |
| 2026-05-05 19:05 | 59.88891 | 8.40507 | 27958 ft | 355 kts | 253° |
| 2026-05-05 19:05 | 59.88040 | 8.35887 | 27957 ft | 355 kts | 253° |
| 2026-05-05 19:05 | 59.87186 | 8.31261 | 27955 ft | 355 kts | 253° |
| 2026-05-05 19:05 | 59.86332 | 8.26645 | 27951 ft | 355 kts | 253° |
| 2026-05-05 19:06 | 59.85476 | 8.22032 | 27958 ft | 355 kts | 253° |
| 2026-05-05 19:06 | 59.84619 | 8.17422 | 27967 ft | 355 kts | 253° |
| 2026-05-05 19:06 | 59.83772 | 8.12875 | 27967 ft | 355 kts | 253° |
| 2026-05-05 19:06 | 59.82911 | 8.08267 | 27964 ft | 355 kts | 253° |
| 2026-05-05 19:07 | 59.82048 | 8.03656 | 27964 ft | 355 kts | 253° |
| 2026-05-05 19:07 | 59.81184 | 7.99051 | 27960 ft | 355 kts | 253° |
| 2026-05-05 19:07 | 59.80319 | 7.94452 | 27964 ft | 355 kts | 253° |
| 2026-05-05 19:07 | 59.79454 | 7.89869 | 27961 ft | 355 kts | 253° |
| 2026-05-05 19:08 | 59.78583 | 7.85251 | 27963 ft | 357 kts | 252° |
| 2026-05-05 19:08 | 59.77705 | 7.80620 | 27963 ft | 358 kts | 252° |
| 2026-05-05 19:08 | 59.76828 | 7.76003 | 27965 ft | 358 kts | 252° |
| 2026-05-05 19:08 | 59.75948 | 7.71382 | 27967 ft | 358 kts | 252° |
| 2026-05-05 19:09 | 59.75068 | 7.66771 | 27964 ft | 357 kts | 252° |
| 2026-05-05 19:09 | 59.74184 | 7.62152 | 27873 ft | 357 kts | 252° |
| 2026-05-05 19:09 | 59.73314 | 7.57615 | 27606 ft | 355 kts | 252° |
| 2026-05-05 19:09 | 59.72435 | 7.53045 | 27344 ft | 353 kts | 252° |
| 2026-05-05 19:10 | 59.71560 | 7.48502 | 27076 ft | 352 kts | 252° |
| 2026-05-05 19:10 | 59.70686 | 7.43979 | 26752 ft | 351 kts | 252° |
| 2026-05-05 19:10 | 59.69817 | 7.39489 | 26253 ft | 348 kts | 252° |
| 2026-05-05 19:10 | 59.68949 | 7.35017 | 25734 ft | 345 kts | 252° |
| 2026-05-05 19:11 | 59.68092 | 7.30610 | 25188 ft | 341 kts | 252° |
| 2026-05-05 19:11 | 59.67238 | 7.26218 | 24702 ft | 343 kts | 252° |
| 2026-05-05 19:11 | 59.66379 | 7.21814 | 24201 ft | 342 kts | 252° |
| 2026-05-05 19:11 | 59.65525 | 7.17449 | 23612 ft | 339 kts | 252° |
| 2026-05-05 19:12 | 59.64681 | 7.13144 | 22949 ft | 339 kts | 252° |
| 2026-05-05 19:12 | 59.63830 | 7.08820 | 22298 ft | 335 kts | 252° |
| 2026-05-05 19:12 | 59.62987 | 7.04549 | 21654 ft | 331 kts | 252° |
| 2026-05-05 19:12 | 59.62151 | 7.00318 | 21023 ft | 329 kts | 252° |
| 2026-05-05 19:13 | 59.61322 | 6.96134 | 20411 ft | 326 kts | 253° |
| 2026-05-05 19:13 | 59.60497 | 6.91969 | 19798 ft | 324 kts | 253° |
| 2026-05-05 19:13 | 59.59658 | 6.87847 | 19202 ft | 323 kts | 250° |
| 2026-05-05 19:13 | 59.58625 | 6.83899 | 18616 ft | 323 kts | 247° |
| 2026-05-05 19:14 | 59.57539 | 6.80084 | 18021 ft | 322 kts | 246° |
| 2026-05-05 19:14 | 59.56438 | 6.76252 | 17364 ft | 322 kts | 246° |
| 2026-05-05 19:14 | 59.55341 | 6.72391 | 16703 ft | 323 kts | 246° |
| 2026-05-05 19:14 | 59.54250 | 6.68512 | 16070 ft | 324 kts | 246° |
| 2026-05-05 19:15 | 59.53160 | 6.64609 | 15442 ft | 325 kts | 246° |
| 2026-05-05 19:15 | 59.52074 | 6.60717 | 14827 ft | 325 kts | 245° |
| 2026-05-05 19:15 | 59.50980 | 6.56789 | 14220 ft | 327 kts | 245° |
| 2026-05-05 19:15 | 59.49883 | 6.52857 | 13612 ft | 329 kts | 245° |
| 2026-05-05 19:16 | 59.48782 | 6.48928 | 12944 ft | 326 kts | 244° |
| 2026-05-05 19:16 | 59.47693 | 6.45048 | 12297 ft | 323 kts | 244° |
| 2026-05-05 19:16 | 59.46602 | 6.41166 | 11664 ft | 323 kts | 244° |
| 2026-05-05 19:16 | 59.45521 | 6.37332 | 11119 ft | 320 kts | 244° |
| 2026-05-05 19:17 | 59.44441 | 6.33504 | 10591 ft | 319 kts | 244° |
| 2026-05-05 19:17 | 59.43361 | 6.29685 | 10091 ft | 320 kts | 244° |
| 2026-05-05 19:17 | 59.42294 | 6.25919 | 9562 ft | 317 kts | 244° |
| 2026-05-05 19:17 | 59.41230 | 6.22172 | 9006 ft | 311 kts | 243° |
| 2026-05-05 19:18 | 59.40184 | 6.18490 | 8470 ft | 306 kts | 243° |
| 2026-05-05 19:18 | 59.39157 | 6.14876 | 7943 ft | 300 kts | 243° |
| 2026-05-05 19:18 | 59.38145 | 6.11322 | 7416 ft | 296 kts | 243° |
| 2026-05-05 19:18 | 59.37144 | 6.07816 | 6911 ft | 292 kts | 243° |
| 2026-05-05 19:19 | 59.36155 | 6.04359 | 6431 ft | 289 kts | 243° |
| 2026-05-05 19:19 | 59.35178 | 6.00946 | 5925 ft | 286 kts | 243° |
| 2026-05-05 19:19 | 59.34537 | 5.98711 | 5588 ft | 283 kts | 243° |
| 2026-05-05 19:19 | 59.33576 | 5.95358 | 5149 ft | 278 kts | 243° |
| 2026-05-05 19:20 | 59.32650 | 5.92142 | 5000 ft | 263 kts | 243° |
| 2026-05-05 19:20 | 59.31775 | 5.89106 | 4885 ft | 250 kts | 243° |
| 2026-05-05 19:20 | 59.30923 | 5.86149 | 4738 ft | 252 kts | 243° |
| 2026-05-05 19:20 | 59.30064 | 5.83167 | 4591 ft | 248 kts | 243° |
| 2026-05-05 19:21 | 59.29241 | 5.80321 | 4461 ft | 240 kts | 243° |
| 2026-05-05 19:21 | 59.28428 | 5.77519 | 4237 ft | 236 kts | 243° |
| 2026-05-05 19:21 | 59.27607 | 5.74670 | 4101 ft | 239 kts | 243° |
| 2026-05-05 19:21 | 59.26791 | 5.71856 | 3998 ft | 238 kts | 243° |
| 2026-05-05 19:22 | 59.25973 | 5.69034 | 3983 ft | 238 kts | 243° |
| 2026-05-05 19:22 | 59.25153 | 5.66215 | 3889 ft | 238 kts | 243° |
| 2026-05-05 19:22 | 59.24342 | 5.63431 | 3781 ft | 232 kts | 243° |
| 2026-05-05 19:22 | 59.23554 | 5.60735 | 3627 ft | 226 kts | 243° |
| 2026-05-05 19:23 | 59.22773 | 5.58058 | 3269 ft | 229 kts | 243° |
| 2026-05-05 19:23 | 59.21997 | 5.55395 | 3028 ft | 225 kts | 243° |
| 2026-05-05 19:23 | 59.21228 | 5.52766 | 3000 ft | 227 kts | 243° |
| 2026-05-05 19:23 | 59.20720 | 5.49978 | 2997 ft | 218 kts | 269° |
| 2026-05-05 19:24 | 59.21059 | 5.47131 | 2995 ft | 216 kts | 302° |
| 2026-05-05 19:24 | 59.22019 | 5.44896 | 2988 ft | 214 kts | 317° |
| 2026-05-05 19:24 | 59.23108 | 5.42997 | 2707 ft | 205 kts | 320° |
| 2026-05-05 19:24 | 59.24207 | 5.41139 | 2523 ft | 212 kts | 319° |
| 2026-05-05 19:25 | 59.25293 | 5.39197 | 2499 ft | 212 kts | 317° |
| 2026-05-05 19:25 | 59.26349 | 5.37199 | 2322 ft | 208 kts | 316° |
| 2026-05-05 19:25 | 59.27361 | 5.35218 | 1840 ft | 206 kts | 315° |
| 2026-05-05 19:25 | 59.28361 | 5.33224 | 1693 ft | 200 kts | 315° |
| 2026-05-05 19:26 | 59.29282 | 5.31373 | 1545 ft | 178 kts | 315° |
| 2026-05-05 19:26 | 59.30078 | 5.29772 | 1245 ft | 158 kts | 315° |
| 2026-05-05 19:26 | 59.30857 | 5.28205 | 996 ft | 167 kts | 315° |
| 2026-05-05 19:26 | 59.31668 | 5.26578 | 769 ft | 168 kts | 311° |
| 2026-05-05 19:27 | 59.32465 | 5.24926 | 550 ft | 158 kts | 313° |
| 2026-05-05 19:27 | 59.33207 | 5.23445 | 313 ft | 151 kts | 315° |
| 2026-05-05 19:27 | 59.33933 | 5.22023 | 93 ft | 137 kts | 315° |
| 2026-05-05 19:27 | 59.34297 | 5.21301 | 90 ft | 0 kts | 312° |
| 2026-05-05 19:28 | 59.34317 | 5.21286 | 86 ft | 7 kts | 351° |
| 2026-05-05 19:28 | 59.34349 | 5.21311 | 90 ft | 2 kts | 37° |
| 2026-05-05 19:28 | 59.34363 | 5.21333 | 90 ft | 4 kts | 40° |
| 2026-05-05 19:28 | 59.34392 | 5.21387 | 92 ft | 7 kts | 44° |
| 2026-05-05 19:29 | 59.34404 | 5.21421 | 90 ft | 5 kts | 64° |
| 2026-05-05 19:29 | 59.34431 | 5.21520 | 88 ft | 11 kts | 47° |
| 2026-05-05 19:29 | 59.34447 | 5.21551 | 87 ft | 1 kts | 44° |
| 2026-05-05 19:29 | 59.34452 | 5.21559 | 87 ft | 0 kts | 43° |